createdAt,value
2023-04-24T00:00:29.771Z,995.10
2023-04-24T00:01:29.795Z,995.09
2023-04-24T00:02:29.931Z,995.13
2023-04-24T00:03:29.949Z,995.14
2023-04-24T00:04:30.073Z,995.07
2023-04-24T00:05:29.893Z,995.08
2023-04-24T00:06:29.917Z,995.12
2023-04-24T00:07:29.940Z,995.09
2023-04-24T00:08:29.971Z,995.13
2023-04-24T00:09:29.990Z,995.12
2023-04-24T00:10:30.030Z,995.17
2023-04-24T00:11:30.038Z,995.14
2023-04-24T00:12:30.058Z,995.15
2023-04-24T00:13:30.095Z,995.14
2023-04-24T00:14:30.106Z,995.16
2023-04-24T00:15:30.129Z,995.10
2023-04-24T00:16:30.183Z,995.10
2023-04-24T00:17:30.186Z,995.12
2023-04-24T00:18:30.201Z,995.11
2023-04-24T00:19:30.227Z,995.14
2023-04-24T00:20:30.250Z,995.06
2023-04-24T00:21:30.271Z,995.04
2023-04-24T00:22:30.298Z,995.01
2023-04-24T00:23:30.321Z,994.99
2023-04-24T00:24:30.350Z,994.97
2023-04-24T00:25:30.369Z,995.02
2023-04-24T00:26:30.397Z,994.99
2023-04-24T00:27:30.417Z,995.02
2023-04-24T00:28:30.438Z,995.04
2023-04-24T00:29:30.463Z,994.99
2023-04-24T00:30:30.495Z,994.96
2023-04-24T00:31:30.536Z,994.94
2023-04-24T00:32:30.549Z,994.95
2023-04-24T00:33:30.559Z,994.92
2023-04-24T00:34:30.589Z,994.86
2023-04-24T00:35:30.620Z,994.85
2023-04-24T00:36:30.633Z,994.85
2023-04-24T00:37:30.667Z,994.85
2023-04-24T00:38:30.681Z,994.84
2023-04-24T00:39:30.706Z,994.83
2023-04-24T00:40:30.736Z,994.79
2023-04-24T00:41:30.777Z,994.75
2023-04-24T00:42:30.777Z,994.75
2023-04-24T00:43:30.809Z,994.76
2023-04-24T00:44:30.857Z,994.75
2023-04-24T00:45:30.852Z,994.75
2023-04-24T00:46:30.937Z,994.75
2023-04-24T00:47:30.893Z,994.73
2023-04-24T00:48:30.917Z,994.70
2023-04-24T00:49:30.941Z,994.70
2023-04-24T00:50:30.967Z,994.74
2023-04-24T00:51:30.989Z,994.66
2023-04-24T00:52:31.029Z,994.72
2023-04-24T00:53:31.039Z,994.70
2023-04-24T00:54:31.071Z,994.64
2023-04-24T00:55:31.096Z,994.69
2023-04-24T00:56:31.110Z,994.68
2023-04-24T00:57:31.129Z,994.67
2023-04-24T00:58:31.155Z,994.65
2023-04-24T00:59:31.179Z,994.65
2023-04-24T01:00:31.208Z,994.68
2023-04-24T01:01:31.272Z,994.65
2023-04-24T01:02:31.307Z,994.63
2023-04-24T01:03:31.456Z,994.65
2023-04-24T01:04:31.494Z,994.65
2023-04-24T01:05:31.340Z,994.69
2023-04-24T01:06:31.344Z,994.69
2023-04-24T01:07:31.368Z,994.70
2023-04-24T01:08:31.395Z,994.69
2023-04-24T01:09:31.415Z,994.70
2023-04-24T01:10:31.441Z,994.67
2023-04-24T01:11:31.464Z,994.67
2023-04-24T01:12:31.486Z,994.70
2023-04-24T01:13:31.508Z,994.61
2023-04-24T01:14:31.538Z,994.64
2023-04-24T01:15:31.571Z,994.65
2023-04-24T01:16:31.647Z,994.67
2023-04-24T01:17:31.627Z,994.67
2023-04-24T01:18:31.628Z,994.64
2023-04-24T01:19:31.653Z,994.64
2023-04-24T01:20:31.675Z,994.64
2023-04-24T01:21:31.703Z,994.64
2023-04-24T01:22:31.725Z,994.65
2023-04-24T01:23:31.745Z,994.62
2023-04-24T01:24:31.773Z,994.63
2023-04-24T01:25:31.805Z,994.61
2023-04-24T01:26:31.823Z,994.61
2023-04-24T01:27:31.851Z,994.58
2023-04-24T01:28:31.909Z,994.59
2023-04-24T01:29:31.888Z,994.61
2023-04-24T01:30:31.925Z,994.61
2023-04-24T01:31:31.978Z,994.62
2023-04-24T01:32:31.979Z,994.65
2023-04-24T01:33:31.998Z,994.68
2023-04-24T01:34:32.003Z,994.61
2023-04-24T01:35:32.032Z,994.62
2023-04-24T01:36:32.053Z,994.63
2023-04-24T01:37:32.074Z,994.65
2023-04-24T01:38:32.100Z,994.59
2023-04-24T01:39:32.126Z,994.60
2023-04-24T01:40:32.162Z,994.60
2023-04-24T01:41:32.176Z,994.57
2023-04-24T01:42:32.195Z,994.56
2023-04-24T01:43:32.216Z,994.56
2023-04-24T01:44:32.241Z,994.60
2023-04-24T01:45:32.267Z,994.59
2023-04-24T01:46:32.320Z,994.61
2023-04-24T01:47:32.351Z,994.59
2023-04-24T01:48:32.340Z,994.56
2023-04-24T01:49:32.357Z,994.64
2023-04-24T01:50:32.377Z,994.61
2023-04-24T01:51:32.402Z,994.57
2023-04-24T01:52:32.433Z,994.60
2023-04-24T01:53:32.448Z,994.56
2023-04-24T01:54:32.476Z,994.61
2023-04-24T01:55:32.492Z,994.55
2023-04-24T01:56:32.518Z,994.59
2023-04-24T01:57:32.550Z,994.54
2023-04-24T01:58:32.566Z,994.53
2023-04-24T01:59:32.589Z,994.56
2023-04-24T02:00:32.638Z,994.54
2023-04-24T02:01:32.633Z,994.54
2023-04-24T02:02:32.742Z,994.54
2023-04-24T02:03:32.851Z,994.58
2023-04-24T02:04:32.701Z,994.60
2023-04-24T02:05:32.746Z,994.60
2023-04-24T02:06:32.747Z,994.58
2023-04-24T02:07:32.776Z,994.56
2023-04-24T02:08:32.799Z,994.56
2023-04-24T02:09:32.821Z,994.61
2023-04-24T02:10:32.834Z,994.59
2023-04-24T02:11:32.862Z,994.56
2023-04-24T02:12:32.894Z,994.58
2023-04-24T02:13:32.911Z,994.59
2023-04-24T02:14:32.926Z,994.58
2023-04-24T02:15:32.949Z,994.54
2023-04-24T02:16:33.013Z,994.58
2023-04-24T02:17:33.014Z,994.54
2023-04-24T02:18:33.027Z,994.54
2023-04-24T02:19:33.038Z,994.57
2023-04-24T02:20:33.062Z,994.58
2023-04-24T02:21:33.085Z,994.56
2023-04-24T02:22:33.114Z,994.60
2023-04-24T02:23:33.128Z,994.58
2023-04-24T02:24:33.153Z,994.62
2023-04-24T02:25:33.179Z,994.57
2023-04-24T02:26:33.196Z,994.55
2023-04-24T02:27:33.220Z,994.55
2023-04-24T02:28:33.243Z,994.60
2023-04-24T02:29:33.268Z,994.59
2023-04-24T02:30:33.288Z,994.60
2023-04-24T02:31:33.340Z,994.58
2023-04-24T02:32:33.336Z,994.55
2023-04-24T02:33:33.354Z,994.57
2023-04-24T02:34:33.375Z,994.57
2023-04-24T02:35:33.580Z,994.56
2023-04-24T02:36:33.519Z,994.63
2023-04-24T02:37:33.526Z,994.57
2023-04-24T02:38:33.535Z,994.60
2023-04-24T02:39:33.555Z,994.56
2023-04-24T02:40:33.530Z,994.59
2023-04-24T02:41:33.611Z,994.56
2023-04-24T02:42:33.585Z,994.57
2023-04-24T02:43:33.576Z,994.64
2023-04-24T02:44:33.658Z,994.64
2023-04-24T02:45:33.663Z,994.61
2023-04-24T02:46:33.675Z,994.62
2023-04-24T02:47:33.759Z,994.61
2023-04-24T02:48:33.690Z,994.60
2023-04-24T02:49:33.714Z,994.65
2023-04-24T02:50:33.730Z,994.64
2023-04-24T02:51:33.754Z,994.62
2023-04-24T02:52:33.794Z,994.62
2023-04-24T02:53:33.804Z,994.61
2023-04-24T02:54:33.830Z,994.62
2023-04-24T02:55:33.849Z,994.70
2023-04-24T02:56:33.866Z,994.73
2023-04-24T02:57:33.903Z,994.71
2023-04-24T02:58:33.915Z,994.73
2023-04-24T02:59:33.942Z,994.72
2023-04-24T03:00:33.968Z,994.71
2023-04-24T03:01:33.996Z,994.69
2023-04-24T03:02:34.164Z,994.72
2023-04-24T03:03:34.149Z,994.69
2023-04-24T03:04:34.256Z,994.73
2023-04-24T03:05:34.085Z,994.69
2023-04-24T03:06:34.101Z,994.73
2023-04-24T03:07:34.119Z,994.73
2023-04-24T03:08:34.141Z,994.70
2023-04-24T03:09:34.161Z,994.73
2023-04-24T03:10:34.182Z,994.73
2023-04-24T03:11:34.212Z,994.70
2023-04-24T03:12:34.231Z,994.66
2023-04-24T03:13:34.253Z,994.67
2023-04-24T03:14:34.273Z,994.67
2023-04-24T03:15:34.296Z,994.67
2023-04-24T03:16:34.410Z,994.62
2023-04-24T03:17:34.372Z,994.61
2023-04-24T03:18:34.359Z,994.60
2023-04-24T03:19:34.393Z,994.64
2023-04-24T03:20:34.420Z,994.71
2023-04-24T03:21:34.431Z,994.67
2023-04-24T03:22:34.452Z,994.73
2023-04-24T03:23:34.474Z,994.70
2023-04-24T03:24:34.505Z,994.67
2023-04-24T03:25:34.527Z,994.73
2023-04-24T03:26:34.544Z,994.72
2023-04-24T03:27:34.566Z,994.75
2023-04-24T03:28:34.591Z,994.75
2023-04-24T03:29:34.624Z,994.73
2023-04-24T03:30:34.636Z,994.84
2023-04-24T03:31:34.701Z,994.81
2023-04-24T03:32:34.735Z,994.86
2023-04-24T03:33:34.717Z,994.84
2023-04-24T03:34:34.726Z,994.81
2023-04-24T03:35:34.749Z,994.81
2023-04-24T03:36:34.768Z,994.76
2023-04-24T03:37:34.798Z,994.73
2023-04-24T03:38:34.829Z,994.76
2023-04-24T03:39:34.846Z,994.75
2023-04-24T03:40:34.870Z,994.77
2023-04-24T03:41:34.878Z,994.76
2023-04-24T03:42:35.002Z,994.74
2023-04-24T03:43:34.923Z,994.73
2023-04-24T03:44:34.956Z,994.72
2023-04-24T03:45:34.982Z,994.73
2023-04-24T03:46:35.006Z,994.69
2023-04-24T03:47:35.036Z,994.67
2023-04-24T03:48:35.036Z,994.67
2023-04-24T03:49:35.059Z,994.67
2023-04-24T03:50:35.082Z,994.71
2023-04-24T03:51:35.107Z,994.65
2023-04-24T03:52:35.129Z,994.64
2023-04-24T03:53:35.148Z,994.64
2023-04-24T03:54:35.168Z,994.62
2023-04-24T03:55:35.186Z,994.66
2023-04-24T03:56:35.216Z,994.67
2023-04-24T03:57:35.239Z,994.66
2023-04-24T03:58:35.254Z,994.68
2023-04-24T03:59:35.276Z,994.69
2023-04-24T04:00:35.297Z,994.77
2023-04-24T04:01:35.322Z,994.74
2023-04-24T04:02:35.420Z,994.78
2023-04-24T04:03:35.528Z,994.76
2023-04-24T04:04:35.623Z,994.78
2023-04-24T04:05:35.411Z,994.84
2023-04-24T04:06:35.434Z,994.86
2023-04-24T04:07:35.461Z,994.89
2023-04-24T04:08:35.489Z,994.89
2023-04-24T04:09:35.500Z,994.97
2023-04-24T04:10:35.528Z,994.98
2023-04-24T04:11:35.552Z,995.00
2023-04-24T04:12:35.565Z,995.08
2023-04-24T04:13:35.598Z,995.01
2023-04-24T04:14:35.615Z,995.04
2023-04-24T04:15:35.628Z,995.12
2023-04-24T04:16:35.701Z,995.05
2023-04-24T04:17:35.738Z,995.09
2023-04-24T04:18:35.708Z,995.10
2023-04-24T04:19:35.718Z,995.14
2023-04-24T04:20:35.739Z,995.11
2023-04-24T04:21:35.778Z,995.15
2023-04-24T04:22:35.788Z,995.17
2023-04-24T04:23:35.810Z,995.19
2023-04-24T04:24:35.828Z,995.19
2023-04-24T04:25:35.848Z,995.21
2023-04-24T04:26:35.872Z,995.19
2023-04-24T04:27:35.933Z,995.11
2023-04-24T04:28:35.913Z,995.24
2023-04-24T04:29:35.934Z,995.18
2023-04-24T04:30:35.960Z,995.21
2023-04-24T04:31:36.107Z,995.17
2023-04-24T04:32:36.032Z,995.23
2023-04-24T04:33:36.028Z,995.23
2023-04-24T04:34:36.045Z,995.13
2023-04-24T04:35:36.095Z,995.14
2023-04-24T04:36:36.095Z,995.14
2023-04-24T04:37:36.129Z,995.14
2023-04-24T04:38:36.145Z,995.16
2023-04-24T04:39:36.169Z,995.18
2023-04-24T04:40:36.182Z,995.15
2023-04-24T04:41:36.269Z,995.12
2023-04-24T04:42:36.234Z,995.19
2023-04-24T04:43:36.247Z,995.12
2023-04-24T04:44:36.270Z,995.18
2023-04-24T04:45:36.326Z,995.21
2023-04-24T04:46:36.322Z,995.15
2023-04-24T04:47:36.374Z,995.13
2023-04-24T04:48:36.362Z,995.19
2023-04-24T04:49:36.401Z,995.20
2023-04-24T04:50:36.405Z,995.20
2023-04-24T04:51:36.432Z,995.18
2023-04-24T04:52:36.456Z,995.19
2023-04-24T04:53:36.488Z,995.23
2023-04-24T04:54:36.493Z,995.16
2023-04-24T04:55:36.529Z,995.24
2023-04-24T04:56:36.539Z,995.23
2023-04-24T04:57:36.578Z,995.25
2023-04-24T04:58:36.582Z,995.32
2023-04-24T04:59:36.605Z,995.23
2023-04-24T05:00:36.661Z,995.26
2023-04-24T05:01:36.711Z,995.24
2023-04-24T05:02:36.839Z,995.26
2023-04-24T05:03:36.987Z,995.23
2023-04-24T05:04:36.909Z,995.25
2023-04-24T05:05:36.735Z,995.31
2023-04-24T05:06:36.775Z,995.26
2023-04-24T05:07:36.804Z,995.24
2023-04-24T05:08:36.812Z,995.24
2023-04-24T05:09:36.835Z,995.26
2023-04-24T05:10:36.853Z,995.23
2023-04-24T05:11:36.870Z,995.21
2023-04-24T05:12:36.897Z,995.18
2023-04-24T05:13:40.944Z,995.27
2023-04-24T05:14:36.958Z,995.23
2023-04-24T05:15:36.970Z,995.27
2023-04-24T05:16:37.010Z,995.24
2023-04-24T05:17:37.023Z,995.24
2023-04-24T05:18:37.039Z,995.28
2023-04-24T05:19:37.148Z,995.27
2023-04-24T05:20:37.077Z,995.24
2023-04-24T05:21:37.101Z,995.25
2023-04-24T05:22:37.126Z,995.30
2023-04-24T05:23:37.152Z,995.29
2023-04-24T05:24:37.163Z,995.31
2023-04-24T05:25:37.190Z,995.28
2023-04-24T05:26:37.211Z,995.28
2023-04-24T05:27:37.238Z,995.30
2023-04-24T05:28:37.284Z,995.33
2023-04-24T05:29:37.283Z,995.30
2023-04-24T05:30:37.295Z,995.28
2023-04-24T05:31:37.380Z,995.34
2023-04-24T05:32:37.387Z,995.38
2023-04-24T05:33:37.393Z,995.36
2023-04-24T05:34:37.406Z,995.34
2023-04-24T05:35:37.414Z,995.34
2023-04-24T05:36:37.449Z,995.40
2023-04-24T05:37:37.467Z,995.38
2023-04-24T05:38:37.499Z,995.37
2023-04-24T05:39:37.506Z,995.37
2023-04-24T05:40:37.528Z,995.36
2023-04-24T05:41:37.550Z,995.38
2023-04-24T05:42:37.582Z,995.37
2023-04-24T05:43:37.599Z,995.36
2023-04-24T05:44:37.622Z,995.34
2023-04-24T05:45:37.644Z,995.34
2023-04-24T05:46:37.705Z,995.38
2023-04-24T05:47:37.727Z,995.34
2023-04-24T05:48:37.721Z,995.37
2023-04-24T05:49:37.738Z,995.33
2023-04-24T05:50:37.756Z,995.32
2023-04-24T05:51:37.788Z,995.33
2023-04-24T05:52:37.803Z,995.35
2023-04-24T05:53:37.825Z,995.32
2023-04-24T05:54:37.856Z,995.31
2023-04-24T05:55:37.872Z,995.29
2023-04-24T05:56:37.894Z,995.33
2023-04-24T05:57:37.922Z,995.33
2023-04-24T05:58:37.944Z,995.29
2023-04-24T05:59:37.964Z,995.35
2023-04-24T06:00:38.014Z,995.33
2023-04-24T06:01:38.137Z,995.33
2023-04-24T06:02:38.139Z,995.33
2023-04-24T06:03:38.187Z,995.31
2023-04-24T06:04:38.460Z,995.37
2023-04-24T06:05:38.097Z,995.35
2023-04-24T06:06:38.127Z,995.35
2023-04-24T06:07:38.147Z,995.36
2023-04-24T06:08:38.170Z,995.34
2023-04-24T06:09:38.191Z,995.34
2023-04-24T06:10:38.216Z,995.40
2023-04-24T06:11:38.265Z,995.36
2023-04-24T06:12:38.271Z,995.41
2023-04-24T06:13:38.295Z,995.31
2023-04-24T06:14:38.306Z,995.32
2023-04-24T06:15:38.340Z,995.32
2023-04-24T06:16:38.402Z,995.39
2023-04-24T06:17:38.406Z,995.37
2023-04-24T06:18:38.397Z,995.39
2023-04-24T06:19:38.438Z,995.46
2023-04-24T06:20:38.449Z,995.38
2023-04-24T06:21:38.461Z,995.43
2023-04-24T06:22:38.581Z,995.43
2023-04-24T06:23:38.513Z,995.47
2023-04-24T06:24:38.537Z,995.45
2023-04-24T06:25:38.593Z,995.48
2023-04-24T06:26:38.587Z,995.46
2023-04-24T06:27:38.607Z,995.53
2023-04-24T06:28:38.633Z,995.51
2023-04-24T06:29:38.650Z,995.50
2023-04-24T06:30:38.672Z,995.58
2023-04-24T06:31:38.718Z,995.48
2023-04-24T06:32:38.753Z,995.45
2023-04-24T06:33:38.771Z,995.46
2023-04-24T06:34:38.763Z,995.48
2023-04-24T06:35:38.782Z,995.43
2023-04-24T06:36:38.813Z,995.49
2023-04-24T06:37:38.834Z,995.52
2023-04-24T06:38:38.857Z,995.47
2023-04-24T06:39:38.883Z,995.48
2023-04-24T06:40:39.735Z,995.46
2023-04-24T06:41:38.928Z,995.46
2023-04-24T06:42:38.951Z,995.55
2023-04-24T06:43:38.986Z,995.52
2023-04-24T06:44:39.018Z,995.50
2023-04-24T06:45:39.051Z,995.50
2023-04-24T06:46:41.550Z,995.49
2023-04-24T06:47:39.121Z,995.50
2023-04-24T06:48:39.113Z,995.50
2023-04-24T06:49:39.114Z,995.47
2023-04-24T06:50:39.170Z,995.51
2023-04-24T06:51:39.190Z,995.52
2023-04-24T06:52:39.200Z,995.50
2023-04-24T06:53:39.219Z,995.49
2023-04-24T06:54:39.236Z,995.48
2023-04-24T06:55:39.273Z,995.54
2023-04-24T06:56:39.289Z,995.56
2023-04-24T06:57:39.319Z,995.53
2023-04-24T06:58:39.345Z,995.54
2023-04-24T06:59:39.359Z,995.57
2023-04-24T07:00:39.392Z,995.56
2023-04-24T07:01:39.508Z,995.55
2023-04-24T07:02:39.552Z,995.61
2023-04-24T07:03:39.637Z,995.62
2023-04-24T07:04:39.569Z,995.61
2023-04-24T07:05:39.479Z,995.66
2023-04-24T07:06:39.497Z,995.62
2023-04-24T07:07:39.525Z,995.61
2023-04-24T07:08:39.568Z,995.61
2023-04-24T07:09:39.572Z,995.64
2023-04-24T07:10:39.591Z,995.60
2023-04-24T07:11:39.616Z,995.66
2023-04-24T07:12:39.645Z,995.59
2023-04-24T07:13:39.671Z,995.63
2023-04-24T07:14:39.695Z,995.63
2023-04-24T07:15:39.737Z,995.58
2023-04-24T07:16:39.792Z,995.63
2023-04-24T07:17:39.818Z,995.63
2023-04-24T07:18:39.781Z,995.61
2023-04-24T07:19:39.801Z,995.58
2023-04-24T07:20:39.828Z,995.60
2023-04-24T07:21:39.849Z,995.66
2023-04-24T07:22:39.876Z,995.66
2023-04-24T07:23:39.895Z,995.57
2023-04-24T07:24:39.917Z,995.65
2023-04-24T07:25:39.941Z,995.63
2023-04-24T07:26:39.965Z,995.70
2023-04-24T07:27:40.032Z,995.66
2023-04-24T07:28:40.014Z,995.76
2023-04-24T07:29:40.045Z,995.70
2023-04-24T07:30:40.073Z,995.73
2023-04-24T07:31:40.152Z,995.71
2023-04-24T07:32:40.133Z,995.75
2023-04-24T07:33:40.129Z,995.74
2023-04-24T07:34:40.153Z,995.72
2023-04-24T07:35:40.173Z,995.82
2023-04-24T07:36:40.202Z,995.75
2023-04-24T07:37:40.223Z,995.71
2023-04-24T07:38:40.246Z,995.75
2023-04-24T07:39:40.280Z,995.73
2023-04-24T07:40:40.296Z,995.80
2023-04-24T07:41:40.314Z,995.79
2023-04-24T07:42:40.338Z,995.77
2023-04-24T07:43:40.360Z,995.82
2023-04-24T07:44:40.381Z,995.83
2023-04-24T07:45:40.400Z,995.88
2023-04-24T07:46:40.464Z,995.84
2023-04-24T07:47:40.491Z,995.84
2023-04-24T07:48:40.480Z,995.84
2023-04-24T07:49:40.507Z,995.82
2023-04-24T07:50:40.518Z,995.84
2023-04-24T07:51:40.549Z,995.86
2023-04-24T07:52:40.581Z,995.87
2023-04-24T07:53:40.586Z,995.86
2023-04-24T07:54:40.656Z,995.86
2023-04-24T07:55:40.656Z,995.92
2023-04-24T07:56:40.655Z,995.93
2023-04-24T07:57:40.678Z,995.87
2023-04-24T07:58:40.702Z,995.87
2023-04-24T07:59:40.860Z,995.94
2023-04-24T08:00:40.760Z,995.90
2023-04-24T08:01:40.777Z,995.86
2023-04-24T08:02:40.977Z,995.90
2023-04-24T08:03:41.000Z,995.90
2023-04-24T08:04:41.032Z,995.93
2023-04-24T08:05:41.191Z,995.90
2023-04-24T08:06:40.889Z,995.89
2023-04-24T08:07:40.912Z,995.94
2023-04-24T08:08:40.945Z,995.92
2023-04-24T08:09:40.998Z,995.92
2023-04-24T08:10:40.977Z,995.94
2023-04-24T08:11:41.005Z,995.95
2023-04-24T08:12:41.030Z,995.98
2023-04-24T08:13:41.060Z,995.99
2023-04-24T08:14:41.272Z,996.01
2023-04-24T08:15:41.143Z,995.99
2023-04-24T08:16:41.222Z,995.95
2023-04-24T08:17:41.293Z,995.99
2023-04-24T08:18:41.165Z,995.95
2023-04-24T08:19:41.391Z,995.99
2023-04-24T08:20:41.219Z,996.00
2023-04-24T08:21:41.234Z,996.00
2023-04-24T08:22:41.261Z,995.99
2023-04-24T08:23:41.285Z,995.98
2023-04-24T08:24:41.308Z,995.99
2023-04-24T08:25:41.337Z,996.02
2023-04-24T08:26:41.361Z,996.02
2023-04-24T08:27:41.389Z,995.95
2023-04-24T08:28:41.417Z,995.99
2023-04-24T08:29:41.545Z,995.99
2023-04-24T08:30:41.454Z,995.97
2023-04-24T08:31:41.536Z,995.96
2023-04-24T08:32:41.547Z,996.02
2023-04-24T08:33:41.522Z,996.03
2023-04-24T08:34:41.576Z,996.08
2023-04-24T08:35:41.571Z,996.03
2023-04-24T08:36:47.116Z,996.12
2023-04-24T08:37:41.618Z,996.10
2023-04-24T08:38:43.151Z,996.11
2023-04-24T08:39:41.874Z,996.11
2023-04-24T08:40:41.693Z,996.18
2023-04-24T08:41:41.715Z,996.13
2023-04-24T08:42:41.766Z,996.12
2023-04-24T08:43:41.765Z,996.19
2023-04-24T08:44:41.785Z,996.17
2023-04-24T08:45:41.940Z,996.11
2023-04-24T08:46:41.913Z,996.18
2023-04-24T08:47:41.918Z,996.17
2023-04-24T08:48:41.892Z,996.16
2023-04-24T08:49:42.050Z,996.15
2023-04-24T08:50:41.936Z,996.18
2023-04-24T08:51:41.954Z,996.14
2023-04-24T08:52:41.986Z,996.15
2023-04-24T08:53:42.013Z,996.12
2023-04-24T08:54:42.033Z,996.14
2023-04-24T08:55:42.069Z,996.12
2023-04-24T08:56:42.076Z,996.14
2023-04-24T08:57:42.096Z,996.18
2023-04-24T08:58:42.119Z,996.16
2023-04-24T08:59:42.307Z,996.17
2023-04-24T09:00:42.166Z,996.07
2023-04-24T09:01:42.250Z,996.13
2023-04-24T09:02:42.319Z,996.10
2023-04-24T09:03:42.377Z,996.12
2023-04-24T09:04:42.525Z,996.18
2023-04-24T09:05:42.283Z,996.17
2023-04-24T09:06:42.309Z,996.20
2023-04-24T09:07:42.340Z,996.16
2023-04-24T09:08:42.365Z,996.22
2023-04-24T09:09:42.462Z,996.24
2023-04-24T09:10:42.446Z,996.28
2023-04-24T09:11:42.426Z,996.20
2023-04-24T09:12:42.452Z,996.18
2023-04-24T09:13:42.475Z,996.20
2023-04-24T09:14:42.500Z,996.27
2023-04-24T09:15:42.534Z,996.28
2023-04-24T09:16:42.573Z,996.29
2023-04-24T09:17:42.583Z,996.26
2023-04-24T09:18:42.597Z,996.36
2023-04-24T09:19:42.963Z,996.31
2023-04-24T09:20:42.647Z,996.29
2023-04-24T09:21:44.366Z,996.37
2023-04-24T09:22:42.684Z,996.33
2023-04-24T09:23:42.713Z,996.31
2023-04-24T09:24:42.737Z,996.40
2023-04-24T09:25:42.759Z,996.35
2023-04-24T09:26:42.782Z,996.29
2023-04-24T09:27:42.805Z,996.36
2023-04-24T09:28:42.831Z,996.42
2023-04-24T09:29:42.995Z,996.38
2023-04-24T09:30:42.878Z,996.34
2023-04-24T09:31:42.937Z,996.32
2023-04-24T09:32:42.972Z,996.40
2023-04-24T09:33:42.947Z,996.35
2023-04-24T09:34:42.971Z,996.40
2023-04-24T09:35:42.998Z,996.35
2023-04-24T09:36:43.254Z,996.38
2023-04-24T09:37:43.051Z,996.40
2023-04-24T09:38:43.069Z,996.38
2023-04-24T09:39:43.292Z,996.41
2023-04-24T09:40:43.116Z,996.41
2023-04-24T09:41:43.134Z,996.42
2023-04-24T09:42:43.159Z,996.42
2023-04-24T09:43:43.182Z,996.39
2023-04-24T09:44:43.361Z,996.43
2023-04-24T09:45:43.271Z,996.44
2023-04-24T09:46:43.522Z,996.38
2023-04-24T09:47:43.302Z,996.41
2023-04-24T09:48:43.301Z,996.40
2023-04-24T09:49:43.630Z,996.38
2023-04-24T09:50:43.349Z,996.46
2023-04-24T09:51:43.386Z,996.44
2023-04-24T09:52:43.396Z,996.47
2023-04-24T09:53:43.425Z,996.50
2023-04-24T09:54:43.447Z,996.49
2023-04-24T09:55:43.467Z,996.50
2023-04-24T09:56:43.510Z,996.48
2023-04-24T09:57:43.514Z,996.47
2023-04-24T09:58:43.541Z,996.51
2023-04-24T09:59:43.864Z,996.47
2023-04-24T10:00:43.603Z,996.52
2023-04-24T10:01:43.712Z,996.56
2023-04-24T10:02:43.730Z,996.58
2023-04-24T10:03:43.772Z,996.56
2023-04-24T10:04:43.716Z,996.52
2023-04-24T10:05:43.703Z,996.62
2023-04-24T10:06:43.724Z,996.61
2023-04-24T10:07:43.752Z,996.64
2023-04-24T10:08:43.775Z,996.64
2023-04-24T10:09:43.962Z,996.62
2023-04-24T10:10:43.843Z,996.60
2023-04-24T10:11:43.849Z,996.67
2023-04-24T10:12:43.877Z,996.70
2023-04-24T10:13:43.894Z,996.71
2023-04-24T10:14:44.739Z,996.75
2023-04-24T10:15:43.971Z,996.75
2023-04-24T10:16:43.965Z,996.71
2023-04-24T10:17:44.040Z,996.73
2023-04-24T10:18:44.014Z,996.73
2023-04-24T10:19:44.263Z,996.77
2023-04-24T10:20:44.064Z,996.77
2023-04-24T10:21:44.111Z,996.85
2023-04-24T10:22:44.105Z,996.80
2023-04-24T10:23:44.159Z,996.83
2023-04-24T10:24:44.345Z,996.80
2023-04-24T10:25:44.180Z,996.89
2023-04-24T10:26:44.208Z,996.89
2023-04-24T10:27:44.244Z,996.93
2023-04-24T10:28:44.261Z,996.93
2023-04-24T10:29:44.294Z,996.99
2023-04-24T10:30:44.329Z,997.04
2023-04-24T10:31:44.416Z,996.99
2023-04-24T10:32:44.374Z,997.03
2023-04-24T10:33:44.381Z,997.05
2023-04-24T10:34:44.402Z,997.12
2023-04-24T10:35:44.439Z,997.06
2023-04-24T10:36:44.450Z,997.12
2023-04-24T10:37:44.470Z,997.13
2023-04-24T10:38:44.503Z,997.13
2023-04-24T10:39:44.520Z,997.22
2023-04-24T10:40:44.551Z,997.24
2023-04-24T10:41:44.608Z,997.26
2023-04-24T10:42:44.601Z,997.28
2023-04-24T10:43:44.623Z,997.29
2023-04-24T10:44:44.643Z,997.32
2023-04-24T10:45:44.664Z,997.32
2023-04-24T10:46:44.720Z,997.34
2023-04-24T10:47:44.733Z,997.35
2023-04-24T10:48:44.741Z,997.34
2023-04-24T10:49:44.763Z,997.38
2023-04-24T10:50:44.786Z,997.37
2023-04-24T10:51:44.814Z,997.41
2023-04-24T10:52:44.829Z,997.41
2023-04-24T10:53:44.857Z,997.44
2023-04-24T10:54:44.888Z,997.48
2023-04-24T10:55:44.949Z,997.48
2023-04-24T10:56:44.934Z,997.51
2023-04-24T10:57:45.278Z,997.53
2023-04-24T10:58:44.978Z,997.54
2023-04-24T10:59:45.013Z,997.59
2023-04-24T11:00:45.068Z,997.61
2023-04-24T11:01:45.050Z,997.63
2023-04-24T11:02:45.228Z,997.62
2023-04-24T11:03:45.303Z,997.66
2023-04-24T11:04:45.208Z,997.62
2023-04-24T11:05:45.151Z,997.65
2023-04-24T11:06:45.174Z,997.68
2023-04-24T11:07:45.198Z,997.66
2023-04-24T11:08:45.232Z,997.72
2023-04-24T11:09:45.268Z,997.68
2023-04-24T11:10:45.263Z,997.70
2023-04-24T11:11:45.308Z,997.72
2023-04-24T11:12:45.315Z,997.73
2023-04-24T11:13:45.335Z,997.72
2023-04-24T11:14:45.381Z,997.75
2023-04-24T11:15:45.381Z,997.76
2023-04-24T11:16:45.566Z,997.78
2023-04-24T11:17:45.513Z,997.74
2023-04-24T11:18:45.453Z,997.78
2023-04-24T11:19:45.483Z,997.82
2023-04-24T11:20:45.505Z,997.82
2023-04-24T11:21:45.542Z,997.85
2023-04-24T11:22:45.557Z,997.86
2023-04-24T11:23:45.570Z,997.89
2023-04-24T11:24:45.588Z,997.92
2023-04-24T11:25:45.616Z,997.94
2023-04-24T11:26:45.640Z,997.95
2023-04-24T11:27:45.664Z,997.97
2023-04-24T11:28:45.687Z,997.93
2023-04-24T11:29:45.706Z,997.95
2023-04-24T11:30:45.740Z,998.00
2023-04-24T11:31:45.788Z,998.03
2023-04-24T11:32:45.819Z,998.08
2023-04-24T11:33:46.214Z,998.04
2023-04-24T11:34:45.898Z,998.03
2023-04-24T11:35:45.852Z,998.00
2023-04-24T11:36:45.876Z,998.10
2023-04-24T11:37:46.195Z,998.19
2023-04-24T11:38:45.918Z,998.24
2023-04-24T11:39:45.942Z,998.23
2023-04-24T11:40:45.971Z,998.28
2023-04-24T11:41:45.990Z,998.32
2023-04-24T11:42:46.014Z,998.32
2023-04-24T11:43:46.055Z,998.31
2023-04-24T11:44:46.062Z,998.38
2023-04-24T11:45:46.118Z,998.36
2023-04-24T11:46:46.108Z,998.41
2023-04-24T11:47:46.146Z,998.45
2023-04-24T11:48:46.153Z,998.54
2023-04-24T11:49:46.189Z,998.49
2023-04-24T11:50:46.198Z,998.56
2023-04-24T11:51:53.290Z,998.61
2023-04-24T11:52:46.245Z,998.62
2023-04-24T11:53:47.709Z,998.63
2023-04-24T11:54:46.291Z,998.67
2023-04-24T11:55:46.326Z,998.68
2023-04-24T11:56:46.345Z,998.67
2023-04-24T11:57:46.354Z,998.67
2023-04-24T11:58:46.375Z,998.75
2023-04-24T11:59:46.456Z,998.75
2023-04-24T12:00:46.427Z,998.73
2023-04-24T12:01:46.444Z,998.75
2023-04-24T12:02:46.658Z,998.79
2023-04-24T12:03:46.715Z,998.81
2023-04-24T12:04:46.813Z,998.87
2023-04-24T12:05:46.707Z,998.88
2023-04-24T12:06:46.560Z,998.89
2023-04-24T12:07:46.598Z,998.98
2023-04-24T12:08:46.698Z,998.98
2023-04-24T12:09:57.280Z,998.99
2023-04-24T12:10:46.652Z,998.97
2023-04-24T12:11:46.673Z,998.99
2023-04-24T12:12:46.694Z,999.00
2023-04-24T12:13:46.717Z,999.02
2023-04-24T12:14:46.778Z,999.05
2023-04-24T12:15:46.786Z,999.08
2023-04-24T12:16:46.785Z,999.03
2023-04-24T12:17:46.809Z,999.04
2023-04-24T12:18:46.853Z,999.04
2023-04-24T12:19:46.852Z,999.04
2023-04-24T12:20:46.875Z,999.07
2023-04-24T12:21:46.941Z,999.02
2023-04-24T12:22:46.928Z,999.10
2023-04-24T12:23:46.956Z,999.08
2023-04-24T12:24:46.961Z,999.15
2023-04-24T12:25:46.985Z,999.16
2023-04-24T12:26:47.032Z,999.16
2023-04-24T12:27:47.033Z,999.19
2023-04-24T12:28:47.060Z,999.20